createdAt,value
2022-08-12T00:02:05.698Z,0.65
2022-08-12T00:05:27.779Z,0.80
2022-08-12T00:08:52.305Z,0.90
2022-08-12T00:12:14.277Z,0.82
2022-08-12T00:15:36.602Z,0.90
2022-08-12T00:18:58.030Z,0.60
2022-08-12T00:22:19.745Z,0.70
2022-08-12T00:26:01.368Z,0.85
2022-08-12T00:29:23.499Z,0.90
2022-08-12T00:32:54.328Z,1.00
2022-08-12T00:36:34.814Z,0.95
2022-08-12T00:39:58.643Z,0.90
2022-08-12T00:43:01.649Z,0.80
2022-08-12T00:46:22.871Z,1.00
2022-08-12T00:49:27.033Z,0.80
2022-08-12T00:52:29.650Z,1.05
2022-08-12T00:55:32.066Z,0.82
2022-08-12T00:58:35.097Z,1.17
2022-08-12T01:02:10.664Z,1.00
2022-08-12T01:05:24.896Z,0.90
2022-08-12T01:08:45.683Z,1.58
2022-08-12T01:11:50.686Z,1.00
2022-08-12T01:14:54.440Z,1.02
2022-08-12T01:17:57.384Z,1.35
2022-08-12T01:21:26.932Z,0.97
2022-08-12T01:24:30.555Z,1.17
2022-08-12T01:27:35.598Z,0.98
2022-08-12T01:30:41.138Z,1.00
2022-08-12T01:33:52.328Z,1.00
2022-08-12T01:37:00.229Z,0.80
2022-08-12T01:40:36.001Z,1.08
2022-08-12T01:43:27.689Z,1.08
2022-08-12T01:47:05.765Z,1.00
2022-08-12T01:50:41.041Z,1.15
2022-08-12T01:54:05.042Z,1.05
2022-08-12T01:57:16.663Z,0.90
2022-08-12T02:00:55.206Z,1.20
2022-08-12T02:04:36.147Z,1.23
2022-08-12T02:08:14.607Z,1.00
2022-08-12T02:11:35.990Z,0.95
2022-08-12T02:15:17.907Z,0.90
2022-08-12T02:18:34.069Z,1.10
2022-08-12T02:21:48.105Z,1.30
2022-08-12T02:27:56.811Z,1.20
2022-08-12T02:31:05.990Z,1.00
2022-08-12T02:34:09.306Z,0.90
2022-08-12T02:37:15.566Z,1.05
2022-08-12T02:40:20.145Z,1.08
2022-08-12T02:44:04.697Z,1.20
2022-08-12T02:47:08.624Z,1.30
2022-08-12T02:53:38.045Z,1.15
2022-08-12T02:56:50.270Z,1.30
2022-08-12T02:59:54.727Z,1.20
2022-08-12T03:03:04.717Z,1.30
2022-08-12T03:06:08.122Z,1.25
2022-08-12T03:12:20.595Z,1.20
2022-08-12T03:15:24.836Z,1.25
2022-08-12T03:18:32.730Z,1.50
2022-08-12T03:21:53.201Z,1.17
2022-08-12T03:25:04.850Z,1.37
2022-08-12T03:28:23.691Z,1.15
2022-08-12T03:31:32.361Z,1.33
2022-08-12T03:34:37.383Z,1.30
2022-08-12T03:37:41.270Z,1.50
2022-08-12T03:41:37.243Z,1.35
2022-08-12T03:45:05.322Z,1.33
2022-08-12T03:48:32.707Z,1.10
2022-08-12T03:51:53.683Z,1.20
2022-08-12T03:55:15.204Z,1.48
2022-08-12T03:58:37.516Z,1.25
2022-08-12T04:01:41.294Z,1.40
2022-08-12T04:04:45.606Z,1.40
2022-08-12T04:07:54.697Z,1.40
2022-08-12T04:11:19.802Z,1.50
2022-08-12T04:14:22.290Z,1.30
2022-08-12T04:17:28.169Z,1.30
2022-08-12T04:20:32.045Z,4.25
2022-08-12T04:23:35.556Z,6.97
2022-08-12T04:26:41.194Z,2.78
2022-08-12T04:30:29.706Z,2.30
2022-08-12T04:33:09.729Z,2.05
2022-08-12T04:36:12.299Z,1.77
2022-08-12T04:39:15.276Z,1.77
2022-08-12T04:42:18.597Z,1.55
2022-08-12T04:45:22.678Z,1.63
2022-08-12T04:48:25.352Z,1.20
2022-08-12T04:51:28.794Z,1.40
2022-08-12T04:54:34.088Z,1.33
2022-08-12T04:57:37.476Z,5.18
2022-08-12T05:03:46.074Z,3.20
2022-08-12T05:06:49.997Z,3.47
2022-08-12T05:10:00.733Z,2.40
2022-08-12T05:13:11.470Z,1.73
2022-08-12T05:16:13.704Z,2.65
2022-08-12T05:19:22.367Z,3.53
2022-08-12T05:22:26.841Z,2.08
2022-08-12T05:25:29.531Z,2.00
2022-08-12T05:28:32.862Z,2.20
2022-08-12T05:31:42.603Z,2.55
2022-08-12T05:34:51.376Z,1.65
2022-08-12T05:38:13.876Z,1.42
2022-08-12T05:41:20.399Z,1.85
2022-08-12T05:44:23.040Z,1.60
2022-08-12T05:47:44.818Z,1.70
2022-08-12T05:50:48.931Z,1.52
2022-08-12T05:53:55.801Z,2.20
2022-08-12T05:57:00.547Z,1.52
2022-08-12T06:00:04.452Z,1.60
2022-08-12T06:03:16.828Z,1.60
2022-08-12T06:06:26.359Z,1.83
2022-08-12T06:09:30.954Z,1.70
2022-08-12T06:12:33.884Z,1.60
2022-08-12T06:15:37.962Z,1.73
2022-08-12T06:18:42.081Z,1.60
2022-08-12T06:21:48.968Z,1.60
2022-08-12T06:24:53.487Z,1.70
2022-08-12T06:28:07.290Z,1.70
2022-08-12T06:31:26.873Z,1.90
2022-08-12T06:35:25.937Z,1.60
2022-08-12T06:37:57.749Z,1.67
2022-08-12T06:41:19.257Z,1.75
2022-08-12T06:44:22.333Z,1.90
2022-08-12T06:47:24.769Z,1.90
2022-08-12T06:50:27.557Z,1.80
2022-08-12T06:53:33.058Z,1.80
2022-08-12T06:59:58.975Z,1.87
2022-08-12T07:03:16.417Z,1.60
2022-08-12T07:06:25.762Z,1.70
2022-08-12T07:10:04.903Z,2.00
2022-08-12T07:12:54.998Z,1.70
2022-08-12T07:15:58.808Z,1.80
2022-08-12T07:19:01.152Z,1.70
2022-08-12T07:22:06.520Z,1.70
2022-08-12T07:25:28.305Z,1.85
2022-08-12T07:28:34.915Z,1.67
2022-08-12T07:31:38.589Z,2.83
2022-08-12T07:34:43.419Z,1.45
2022-08-12T07:37:47.266Z,2.15
2022-08-12T07:40:50.697Z,1.67
2022-08-12T07:43:58.249Z,1.65
2022-08-12T07:47:04.094Z,1.65
2022-08-12T07:50:09.353Z,1.90
2022-08-12T07:53:12.009Z,2.12
2022-08-12T07:56:14.809Z,1.62
2022-08-12T07:59:17.364Z,1.60
2022-08-12T08:02:19.798Z,1.77
2022-08-12T08:05:47.591Z,1.60
2022-08-12T08:08:49.818Z,1.80
2022-08-12T08:12:18.903Z,1.70
2022-08-12T08:15:51.075Z,1.98
2022-08-12T08:18:53.290Z,1.85
2022-08-12T08:21:58.731Z,1.70
2022-08-12T08:25:02.445Z,1.70
2022-08-12T08:28:18.948Z,2.00
2022-08-12T08:31:21.641Z,1.67
2022-08-12T08:34:34.043Z,1.90
2022-08-12T08:37:50.501Z,1.77
2022-08-12T08:41:11.349Z,1.62
2022-08-12T08:44:13.920Z,1.80
2022-08-12T08:47:16.198Z,1.98
2022-08-12T08:50:18.803Z,1.95
2022-08-12T08:53:21.166Z,2.20
2022-08-12T08:56:23.757Z,1.62
2022-08-12T08:59:26.133Z,1.83
2022-08-12T09:02:28.950Z,1.83
2022-08-12T09:06:01.805Z,1.83
2022-08-12T09:08:54.743Z,1.60
2022-08-12T09:12:27.502Z,1.60
2022-08-12T09:15:35.109Z,1.60
2022-08-12T09:18:38.989Z,1.60
2022-08-12T09:21:54.501Z,1.40
2022-08-12T09:24:59.869Z,1.70
2022-08-12T09:32:06.296Z,1.70
2022-08-12T09:42:34.537Z,2.05
2022-08-12T09:44:45.234Z,1.87
2022-08-12T09:47:56.912Z,2.50
2022-08-12T09:51:02.696Z,2.22
2022-08-12T09:54:30.970Z,1.77
2022-08-12T09:58:45.757Z,1.90
2022-08-12T10:00:54.513Z,1.65
2022-08-12T10:04:03.798Z,1.58
2022-08-12T10:07:24.937Z,1.70
2022-08-12T10:10:30.599Z,1.50
2022-08-12T10:13:45.324Z,1.50
2022-08-12T10:16:49.241Z,1.45
2022-08-12T10:19:52.940Z,1.83
2022-08-12T10:23:00.638Z,1.60
2022-08-12T10:26:37.722Z,1.70
2022-08-12T10:30:37.061Z,1.45
2022-08-12T10:33:18.004Z,1.90
2022-08-12T10:36:39.804Z,1.67
2022-08-12T10:40:07.381Z,1.92
2022-08-12T10:43:25.503Z,1.83
2022-08-12T10:46:30.346Z,3.20
2022-08-12T10:50:04.870Z,2.53
2022-08-12T10:53:00.548Z,1.73
2022-08-12T10:56:05.251Z,2.70
2022-08-12T10:59:10.786Z,2.12
2022-08-12T11:04:23.172Z,2.20
2022-08-12T11:07:08.562Z,1.95
2022-08-12T11:09:01.548Z,1.40
2022-08-12T11:12:35.506Z,1.50
2022-08-12T11:16:02.568Z,2.05
2022-08-12T11:18:55.318Z,1.70
2022-08-12T11:22:01.417Z,1.30
2022-08-12T11:25:10.433Z,2.20
2022-08-12T11:28:16.026Z,1.50
2022-08-12T11:31:18.987Z,1.50
2022-08-12T11:34:53.691Z,1.40
2022-08-12T11:37:59.286Z,1.67
2022-08-12T11:41:05.131Z,1.80
2022-08-12T11:44:36.705Z,1.65
2022-08-12T11:47:30.508Z,1.65
2022-08-12T11:50:33.131Z,1.60
2022-08-12T11:58:08.122Z,1.80
2022-08-12T12:03:51.569Z,1.77
2022-08-12T12:07:07.084Z,1.62
2022-08-12T12:10:15.115Z,1.62
2022-08-12T12:13:22.867Z,1.58
2022-08-12T12:16:26.148Z,1.50
2022-08-12T12:19:28.441Z,1.80
2022-08-12T12:22:48.128Z,1.50
2022-08-12T12:25:59.493Z,1.40
2022-08-12T12:30:19.642Z,1.60
2022-08-12T12:32:32.580Z,1.60
2022-08-12T12:36:06.367Z,1.50
2022-08-12T12:39:00.670Z,1.55
2022-08-12T12:42:43.102Z,1.48
2022-08-12T12:45:26.992Z,1.70
2022-08-12T12:48:29.663Z,1.40
2022-08-12T12:51:55.149Z,1.40
2022-08-12T12:54:55.786Z,1.60
2022-08-12T12:58:00.941Z,1.70
2022-08-12T13:01:26.714Z,1.90
2022-08-12T13:04:28.227Z,1.70
2022-08-12T13:07:54.129Z,1.60
2022-08-12T13:11:05.927Z,1.52
2022-08-12T13:14:12.973Z,1.60
2022-08-12T13:18:02.472Z,1.40
2022-08-12T13:20:59.497Z,1.50
2022-08-12T13:24:09.921Z,1.70
2022-08-12T13:27:13.119Z,1.85
2022-08-12T13:30:18.871Z,1.75
2022-08-12T13:33:26.103Z,1.92
2022-08-12T13:36:30.988Z,1.50
2022-08-12T13:42:39.713Z,1.73
2022-08-12T13:45:42.807Z,1.50
2022-08-12T13:48:45.696Z,1.60
2022-08-12T13:51:52.956Z,1.60
2022-08-12T13:54:56.929Z,1.60
2022-08-12T13:57:59.946Z,1.48
2022-08-12T14:01:08.888Z,1.40
2022-08-12T14:04:12.450Z,1.40
2022-08-12T14:10:36.569Z,1.40
2022-08-12T14:14:04.174Z,1.37
2022-08-12T14:17:10.922Z,1.50
2022-08-12T14:20:13.339Z,1.30
2022-08-12T14:26:41.483Z,1.42
2022-08-12T14:30:05.549Z,1.70
2022-08-12T14:33:10.970Z,1.48
2022-08-12T14:36:15.815Z,1.30
2022-08-12T14:39:18.112Z,1.30
2022-08-12T14:42:21.116Z,1.42
2022-08-12T14:45:37.062Z,1.58
2022-08-12T14:48:50.936Z,1.50
2022-08-12T14:52:43.247Z,1.73
2022-08-12T14:59:23.148Z,1.67
2022-08-12T15:02:25.804Z,1.55
2022-08-12T15:06:05.466Z,2.08
2022-08-12T15:08:50.682Z,4.40
2022-08-12T15:11:55.541Z,2.55
2022-08-12T15:15:00.740Z,2.00
2022-08-12T15:18:22.691Z,1.42
2022-08-12T15:21:25.588Z,2.08
2022-08-12T15:24:48.734Z,2.03
2022-08-12T15:28:20.732Z,1.90
2022-08-12T15:31:27.440Z,1.70
2022-08-12T15:34:33.303Z,1.52
2022-08-12T15:38:08.798Z,1.60
2022-08-12T15:41:00.134Z,1.67
2022-08-12T15:44:36.712Z,1.70
2022-08-12T15:47:47.918Z,1.65
2022-08-12T15:50:53.052Z,1.65
2022-08-12T15:54:31.105Z,2.00
2022-08-12T15:57:33.571Z,1.80
2022-08-12T16:00:39.305Z,1.60
2022-08-12T16:03:45.384Z,1.50
2022-08-12T16:07:06.046Z,1.67
2022-08-12T16:10:13.181Z,1.50
2022-08-12T16:13:25.249Z,1.73
2022-08-12T16:16:37.595Z,1.80
2022-08-12T16:20:02.701Z,1.80
2022-08-12T16:23:36.266Z,1.55
2022-08-12T16:26:35.782Z,1.58
2022-08-12T16:29:53.504Z,2.10
2022-08-12T16:33:09.365Z,1.90
2022-08-12T16:36:13.515Z,2.17
2022-08-12T16:39:21.428Z,2.12
2022-08-12T16:42:28.285Z,1.95
2022-08-12T16:46:04.050Z,1.87
2022-08-12T16:48:56.367Z,1.80
2022-08-12T16:52:00.636Z,1.83
2022-08-12T16:55:04.011Z,1.60
2022-08-12T16:58:28.358Z,1.75
2022-08-12T17:01:37.615Z,2.00
2022-08-12T17:04:42.646Z,3.60
2022-08-12T17:07:55.973Z,6.10
2022-08-12T17:10:59.301Z,8.35
2022-08-12T17:14:01.877Z,7.25
2022-08-12T17:17:09.831Z,4.62
2022-08-12T17:20:36.740Z,5.20
2022-08-12T17:23:48.304Z,2.65
2022-08-12T17:26:58.565Z,4.70
2022-08-12T17:30:04.626Z,4.95
2022-08-12T17:33:12.900Z,4.07
2022-08-12T17:36:19.561Z,4.30
2022-08-12T17:39:23.598Z,2.60
2022-08-12T17:42:34.147Z,2.33
2022-08-12T17:45:42.235Z,1.92
2022-08-12T17:48:55.133Z,2.80
2022-08-12T17:52:02.925Z,3.17
2022-08-12T17:55:21.875Z,2.37
2022-08-12T17:58:35.587Z,3.10
2022-08-12T18:01:45.197Z,3.42
2022-08-12T18:05:04.482Z,3.55
2022-08-12T18:08:11.094Z,6.03
2022-08-12T18:12:03.046Z,3.53
2022-08-12T18:15:00.627Z,2.80
2022-08-12T18:18:04.207Z,3.58
2022-08-12T18:24:22.069Z,2.30
2022-08-12T18:27:29.928Z,2.45
2022-08-12T18:30:55.886Z,3.12
2022-08-12T18:34:03.208Z,2.62
2022-08-12T18:37:26.561Z,2.97
2022-08-12T18:40:47.875Z,2.40
2022-08-12T18:44:00.781Z,2.90
2022-08-12T18:47:09.269Z,2.60
2022-08-12T18:50:13.611Z,3.10
2022-08-12T18:54:05.659Z,2.35
2022-08-12T18:56:41.954Z,3.03
2022-08-12T19:03:09.253Z,3.03
2022-08-12T19:06:35.894Z,3.00
2022-08-12T19:09:59.162Z,2.78
2022-08-12T19:13:24.715Z,2.30
2022-08-12T19:16:28.520Z,2.78
2022-08-12T19:19:37.252Z,3.00
2022-08-12T19:22:59.601Z,3.10
2022-08-12T19:26:12.232Z,2.28
2022-08-12T19:29:19.679Z,2.80
2022-08-12T19:32:23.689Z,2.72
2022-08-12T19:36:07.450Z,3.40
2022-08-12T19:38:57.109Z,3.05
2022-08-12T19:42:01.807Z,2.62
2022-08-12T19:45:05.783Z,3.35
2022-08-12T19:48:17.872Z,3.33
2022-08-12T19:51:35.857Z,3.05
2022-08-12T19:54:38.792Z,3.33
2022-08-12T19:58:01.851Z,3.45
2022-08-12T20:01:10.966Z,3.72
2022-08-12T20:04:14.407Z,4.28
2022-08-12T20:07:23.811Z,3.30
2022-08-12T20:10:35.521Z,2.95
2022-08-12T20:13:38.801Z,2.85
2022-08-12T20:16:51.022Z,2.60
2022-08-12T20:20:17.339Z,3.25
2022-08-12T20:23:23.959Z,2.95
2022-08-12T20:26:46.421Z,2.60
2022-08-12T20:29:54.364Z,2.90
2022-08-12T20:33:01.581Z,2.80
2022-08-12T20:36:06.555Z,3.15
2022-08-12T20:39:52.294Z,3.50
2022-08-12T20:42:40.980Z,3.17
2022-08-12T20:45:44.958Z,3.58
2022-08-12T20:48:55.098Z,2.87
2022-08-12T20:52:01.845Z,2.80
2022-08-12T20:55:15.566Z,2.80
2022-08-12T20:58:22.885Z,3.05
2022-08-12T21:01:36.828Z,3.20
2022-08-12T21:05:16.064Z,3.40
2022-08-12T21:08:19.553Z,2.85
2022-08-12T21:11:24.650Z,2.80
2022-08-12T21:14:39.491Z,2.33
2022-08-12T21:18:15.373Z,2.70
2022-08-12T21:21:40.231Z,2.80
2022-08-12T21:24:46.805Z,3.22
2022-08-12T21:27:59.430Z,2.87
2022-08-12T21:32:34.395Z,2.75
2022-08-12T21:34:29.727Z,2.80
2022-08-12T21:37:37.410Z,2.58
2022-08-12T21:40:51.936Z,2.42
2022-08-12T21:44:01.661Z,2.50
2022-08-12T21:47:20.813Z,2.92
2022-08-12T21:50:29.131Z,3.30
2022-08-12T21:54:06.780Z,2.78
2022-08-12T21:56:54.218Z,2.45
2022-08-12T21:59:56.737Z,2.40
2022-08-12T22:03:17.749Z,2.15
2022-08-12T22:06:43.263Z,2.30
2022-08-12T22:09:46.452Z,2.50
2022-08-12T22:12:50.406Z,2.70
2022-08-12T22:15:53.423Z,2.90
2022-08-12T22:18:57.756Z,2.80
2022-08-12T22:22:04.693Z,2.60
2022-08-12T22:25:14.122Z,3.92
2022-08-12T22:28:38.841Z,3.30
2022-08-12T22:31:42.358Z,3.60
2022-08-12T22:34:46.154Z,3.67
2022-08-12T22:37:48.689Z,2.80
2022-08-12T22:41:02.238Z,3.25
2022-08-12T22:47:53.715Z,2.97
2022-08-12T22:50:59.719Z,2.50
2022-08-12T22:54:02.043Z,2.40
2022-08-12T22:57:12.060Z,2.47
2022-08-12T23:00:24.120Z,2.37
2022-08-12T23:03:48.647Z,2.67
2022-08-12T23:06:58.269Z,2.35
2022-08-12T23:10:01.506Z,2.35
2022-08-12T23:13:22.901Z,2.65
2022-08-12T23:16:31.579Z,2.70
2022-08-12T23:19:38.371Z,2.80
2022-08-12T23:22:41.132Z,2.50
2022-08-12T23:25:55.153Z,2.30
2022-08-12T23:29:29.385Z,2.55
2022-08-12T23:32:35.843Z,2.85
2022-08-12T23:35:53.728Z,2.35
2022-08-12T23:39:03.725Z,2.67
2022-08-12T23:42:16.884Z,2.92
2022-08-12T23:45:31.439Z,2.70
2022-08-12T23:48:35.253Z,2.83
2022-08-12T23:51:37.770Z,2.80
2022-08-12T23:54:46.236Z,3.00
2022-08-12T23:58:21.509Z,2.70
